sensor_id;sensor_type;location;lat;lon;timestamp;temperature;humidity
69464;DHT22;56665;41.106;16.688;2023-08-01T00:00:14;25.51;59.48
69464;DHT22;56665;41.106;16.688;2023-08-01T00:03:18;25.41;59.56
69464;DHT22;56665;41.106;16.688;2023-08-01T00:06:21;25.32;59.79
69464;DHT22;56665;41.106;16.688;2023-08-01T00:09:26;25.30;60.37
69464;DHT22;56665;41.106;16.688;2023-08-01T00:12:30;25.27;60.29
69464;DHT22;56665;41.106;16.688;2023-08-01T00:15:34;25.22;60.19
69464;DHT22;56665;41.106;16.688;2023-08-01T00:18:37;25.17;60.49
69464;DHT22;56665;41.106;16.688;2023-08-01T00:21:41;25.15;60.58
69464;DHT22;56665;41.106;16.688;2023-08-01T00:24:45;25.15;60.54
69464;DHT22;56665;41.106;16.688;2023-08-01T00:27:50;25.10;60.50
69464;DHT22;56665;41.106;16.688;2023-08-01T00:31:07;25.08;60.63
69464;DHT22;56665;41.106;16.688;2023-08-01T00:34:14;25.04;60.72
69464;DHT22;56665;41.106;16.688;2023-08-01T00:37:18;25.03;60.85
69464;DHT22;56665;41.106;16.688;2023-08-01T00:40:22;24.97;61.03
69464;DHT22;56665;41.106;16.688;2023-08-01T00:43:26;24.96;61.00
69464;DHT22;56665;41.106;16.688;2023-08-01T00:46:30;24.96;60.79
69464;DHT22;56665;41.106;16.688;2023-08-01T00:49:34;24.91;60.86
69464;DHT22;56665;41.106;16.688;2023-08-01T00:52:38;24.90;60.81
69464;DHT22;56665;41.106;16.688;2023-08-01T00:55:42;24.84;61.27
69464;DHT22;56665;41.106;16.688;2023-08-01T00:58:46;24.86;61.11
69464;DHT22;56665;41.106;16.688;2023-08-01T01:01:50;24.91;61.15
69464;DHT22;56665;41.106;16.688;2023-08-01T01:04:53;25.00;60.97
69464;DHT22;56665;41.106;16.688;2023-08-01T01:07:58;25.03;61.06
69464;DHT22;56665;41.106;16.688;2023-08-01T01:11:01;25.06;60.69
69464;DHT22;56665;41.106;16.688;2023-08-01T01:14:05;25.04;60.20
69464;DHT22;56665;41.106;16.688;2023-08-01T01:17:08;25.00;60.47
69464;DHT22;56665;41.106;16.688;2023-08-01T01:20:12;24.94;60.58
69464;DHT22;56665;41.106;16.688;2023-08-01T01:23:16;24.82;60.98
69464;DHT22;56665;41.106;16.688;2023-08-01T01:26:20;24.76;61.02
69464;DHT22;56665;41.106;16.688;2023-08-01T01:29:26;24.73;61.36
69464;DHT22;56665;41.106;16.688;2023-08-01T01:32:30;24.76;61.52
69464;DHT22;56665;41.106;16.688;2023-08-01T01:35:34;24.74;61.37
69464;DHT22;56665;41.106;16.688;2023-08-01T01:38:38;24.79;61.20
69464;DHT22;56665;41.106;16.688;2023-08-01T01:41:42;24.74;61.69
69464;DHT22;56665;41.106;16.688;2023-08-01T01:44:45;24.74;61.63
69464;DHT22;56665;41.106;16.688;2023-08-01T01:47:49;24.73;61.56
69464;DHT22;56665;41.106;16.688;2023-08-01T01:50:53;24.73;61.69
69464;DHT22;56665;41.106;16.688;2023-08-01T01:53:56;24.73;61.89
69464;DHT22;56665;41.106;16.688;2023-08-01T01:57:00;24.73;61.95
69464;DHT22;56665;41.106;16.688;2023-08-01T02:00:04;24.70;61.89
69464;DHT22;56665;41.106;16.688;2023-08-01T02:03:16;24.69;61.94
69464;DHT22;56665;41.106;16.688;2023-08-01T02:06:19;24.66;61.95
69464;DHT22;56665;41.106;16.688;2023-08-01T02:09:23;24.66;62.05
69464;DHT22;56665;41.106;16.688;2023-08-01T02:12:28;24.69;61.87
69464;DHT22;56665;41.106;16.688;2023-08-01T02:15:34;24.67;62.24
69464;DHT22;56665;41.106;16.688;2023-08-01T02:18:38;24.66;62.37
69464;DHT22;56665;41.106;16.688;2023-08-01T02:21:42;24.62;62.12
69464;DHT22;56665;41.106;16.688;2023-08-01T02:24:45;24.52;62.03
69464;DHT22;56665;41.106;16.688;2023-08-01T02:27:49;24.45;62.23
69464;DHT22;56665;41.106;16.688;2023-08-01T02:30:53;24.36;62.51
69464;DHT22;56665;41.106;16.688;2023-08-01T02:33:58;24.38;62.62
69464;DHT22;56665;41.106;16.688;2023-08-01T02:37:01;24.36;62.78
69464;DHT22;56665;41.106;16.688;2023-08-01T02:40:08;24.28;62.65
69464;DHT22;56665;41.106;16.688;2023-08-01T02:43:12;24.29;62.63
69464;DHT22;56665;41.106;16.688;2023-08-01T02:46:16;24.31;62.56
69464;DHT22;56665;41.106;16.688;2023-08-01T02:49:20;24.31;62.55
69464;DHT22;56665;41.106;16.688;2023-08-01T02:52:24;24.29;62.55
69464;DHT22;56665;41.106;16.688;2023-08-01T02:55:28;24.28;62.72
69464;DHT22;56665;41.106;16.688;2023-08-01T02:58:31;24.26;62.98
69464;DHT22;56665;41.106;16.688;2023-08-01T03:01:36;24.19;62.99
69464;DHT22;56665;41.106;16.688;2023-08-01T03:04:40;24.21;63.41
69464;DHT22;56665;41.106;16.688;2023-08-01T03:07:43;24.21;63.69
69464;DHT22;56665;41.106;16.688;2023-08-01T03:10:47;24.22;63.94
69464;DHT22;56665;41.106;16.688;2023-08-01T03:13:51;24.23;63.94
69464;DHT22;56665;41.106;16.688;2023-08-01T03:16:55;24.19;64.07
69464;DHT22;56665;41.106;16.688;2023-08-01T03:19:58;24.18;64.44
69464;DHT22;56665;41.106;16.688;2023-08-01T03:23:02;24.15;64.68
69464;DHT22;56665;41.106;16.688;2023-08-01T03:26:06;24.12;64.99
69464;DHT22;56665;41.106;16.688;2023-08-01T03:29:10;24.09;65.42
69464;DHT22;56665;41.106;16.688;2023-08-01T03:32:13;24.08;65.71
69464;DHT22;56665;41.106;16.688;2023-08-01T03:35:17;24.04;66.01
69464;DHT22;56665;41.106;16.688;2023-08-01T03:38:21;24.04;66.36
69464;DHT22;56665;41.106;16.688;2023-08-01T03:41:25;24.04;66.74
69464;DHT22;56665;41.106;16.688;2023-08-01T03:44:28;24.02;67.18
69464;DHT22;56665;41.106;16.688;2023-08-01T03:47:32;24.04;67.74
69464;DHT22;56665;41.106;16.688;2023-08-01T03:50:36;24.00;67.81
69464;DHT22;56665;41.106;16.688;2023-08-01T03:53:39;24.01;68.43
69464;DHT22;56665;41.106;16.688;2023-08-01T03:56:43;24.02;68.72
69464;DHT22;56665;41.106;16.688;2023-08-01T03:59:47;24.05;68.89
69464;DHT22;56665;41.106;16.688;2023-08-01T04:02:51;24.05;69.10
69464;DHT22;56665;41.106;16.688;2023-08-01T04:05:55;24.09;69.23
69464;DHT22;56665;41.106;16.688;2023-08-01T04:08:59;24.12;69.54
69464;DHT22;56665;41.106;16.688;2023-08-01T04:12:04;24.16;69.65
69464;DHT22;56665;41.106;16.688;2023-08-01T04:15:10;24.18;69.91
69464;DHT22;56665;41.106;16.688;2023-08-01T04:18:14;24.22;69.70
69464;DHT22;56665;41.106;16.688;2023-08-01T04:21:19;24.31;69.77
69464;DHT22;56665;41.106;16.688;2023-08-01T04:24:23;24.38;69.78
69464;DHT22;56665;41.106;16.688;2023-08-01T04:27:28;24.36;69.71
69464;DHT22;56665;41.106;16.688;2023-08-01T04:30:32;24.42;69.44
69464;DHT22;56665;41.106;16.688;2023-08-01T04:33:36;24.45;69.49
69464;DHT22;56665;41.106;16.688;2023-08-01T04:36:40;24.48;69.51
69464;DHT22;56665;41.106;16.688;2023-08-01T04:39:44;24.53;69.41
69464;DHT22;56665;41.106;16.688;2023-08-01T04:42:48;24.62;69.18
69464;DHT22;56665;41.106;16.688;2023-08-01T04:45:42;24.72;69.03
69464;DHT22;56665;41.106;16.688;2023-08-01T04:48:46;24.82;68.49
69464;DHT22;56665;41.106;16.688;2023-08-01T04:51:50;25.01;67.90
69464;DHT22;56665;41.106;16.688;2023-08-01T04:54:54;25.17;67.53
69464;DHT22;56665;41.106;16.688;2023-08-01T04:57:58;25.35;66.99
69464;DHT22;56665;41.106;16.688;2023-08-01T05:01:02;25.55;66.63
69464;DHT22;56665;41.106;16.688;2023-08-01T05:04:06;25.72;65.99
69464;DHT22;56665;41.106;16.688;2023-08-01T05:07:09;25.86;65.33
69464;DHT22;56665;41.106;16.688;2023-08-01T05:10:13;26.04;64.83
69464;DHT22;56665;41.106;16.688;2023-08-01T05:13:17;26.20;64.29
69464;DHT22;56665;41.106;16.688;2023-08-01T05:16:23;26.39;63.72
69464;DHT22;56665;41.106;16.688;2023-08-01T05:19:27;26.58;62.87
69464;DHT22;56665;41.106;16.688;2023-08-01T05:22:31;26.81;61.97
69464;DHT22;56665;41.106;16.688;2023-08-01T05:25:35;27.05;61.25
69464;DHT22;56665;41.106;16.688;2023-08-01T05:28:38;27.20;60.75
69464;DHT22;56665;41.106;16.688;2023-08-01T05:31:42;27.45;60.10
69464;DHT22;56665;41.106;16.688;2023-08-01T05:34:46;27.63;59.88
69464;DHT22;56665;41.106;16.688;2023-08-01T05:37:50;27.84;59.36
69464;DHT22;56665;41.106;16.688;2023-08-01T05:40:54;28.02;59.08
69464;DHT22;56665;41.106;16.688;2023-08-01T05:43:58;28.18;58.93
69464;DHT22;56665;41.106;16.688;2023-08-01T05:47:03;28.39;58.62
69464;DHT22;56665;41.106;16.688;2023-08-01T05:50:07;28.62;58.27
69464;DHT22;56665;41.106;16.688;2023-08-01T05:53:11;28.87;57.69
69464;DHT22;56665;41.106;16.688;2023-08-01T05:56:16;29.14;57.35
69464;DHT22;56665;41.106;16.688;2023-08-01T05:59:21;29.41;56.58
69464;DHT22;56665;41.106;16.688;2023-08-01T06:02:25;29.66;56.75
69464;DHT22;56665;41.106;16.688;2023-08-01T06:05:31;29.88;56.28
69464;DHT22;56665;41.106;16.688;2023-08-01T06:08:35;30.20;55.91
69464;DHT22;56665;41.106;16.688;2023-08-01T06:11:39;30.57;54.70
69464;DHT22;56665;41.106;16.688;2023-08-01T06:14:42;30.85;53.96
69464;DHT22;56665;41.106;16.688;2023-08-01T06:17:46;31.04;53.53
69464;DHT22;56665;41.106;16.688;2023-08-01T06:20:51;31.33;52.56
69464;DHT22;56665;41.106;16.688;2023-08-01T06:23:55;31.64;52.34
69464;DHT22;56665;41.106;16.688;2023-08-01T06:26:59;31.94;52.27
69464;DHT22;56665;41.106;16.688;2023-08-01T06:30:03;32.23;51.50
69464;DHT22;56665;41.106;16.688;2023-08-01T06:33:07;32.45;49.64
69464;DHT22;56665;41.106;16.688;2023-08-01T06:36:12;32.85;48.53
69464;DHT22;56665;41.106;16.688;2023-08-01T06:39:16;33.13;47.28
69464;DHT22;56665;41.106;16.688;2023-08-01T06:42:20;33.31;45.84
69464;DHT22;56665;41.106;16.688;2023-08-01T06:45:26;33.57;45.66
69464;DHT22;56665;41.106;16.688;2023-08-01T06:48:30;33.75;45.88
69464;DHT22;56665;41.106;16.688;2023-08-01T06:51:34;33.90;45.92
69464;DHT22;56665;41.106;16.688;2023-08-01T06:54:38;34.19;44.56
69464;DHT22;56665;41.106;16.688;2023-08-01T06:57:42;34.36;43.75
69464;DHT22;56665;41.106;16.688;2023-08-01T07:00:46;34.56;44.05
69464;DHT22;56665;41.106;16.688;2023-08-01T07:03:51;34.73;42.94
69464;DHT22;56665;41.106;16.688;2023-08-01T07:06:55;35.01;42.93
69464;DHT22;56665;41.106;16.688;2023-08-01T07:10:02;35.28;42.96
69464;DHT22;56665;41.106;16.688;2023-08-01T07:13:05;35.48;42.44
69464;DHT22;56665;41.106;16.688;2023-08-01T07:16:09;35.76;42.56
69464;DHT22;56665;41.106;16.688;2023-08-01T07:19:13;36.07;40.98
69464;DHT22;56665;41.106;16.688;2023-08-01T07:22:17;36.43;40.27
69464;DHT22;56665;41.106;16.688;2023-08-01T07:25:21;36.73;40.28
69464;DHT22;56665;41.106;16.688;2023-08-01T07:28:26;37.02;39.42
69464;DHT22;56665;41.106;16.688;2023-08-01T07:31:30;37.45;38.59
69464;DHT22;56665;41.106;16.688;2023-08-01T07:34:35;37.63;38.16
69464;DHT22;56665;41.106;16.688;2023-08-01T07:37:38;38.47;37.59
69464;DHT22;56665;41.106;16.688;2023-08-01T07:40:42;39.63;36.25
69464;DHT22;56665;41.106;16.688;2023-08-01T07:43:46;41.07;34.02
69464;DHT22;56665;41.106;16.688;2023-08-01T07:46:50;42.53;32.40
69464;DHT22;56665;41.106;16.688;2023-08-01T07:49:54;44.04;30.88
69464;DHT22;56665;41.106;16.688;2023-08-01T07:52:57;45.57;28.97
69464;DHT22;56665;41.106;16.688;2023-08-01T07:56:01;46.88;27.56
69464;DHT22;56665;41.106;16.688;2023-08-01T07:59:06;47.77;26.95
69464;DHT22;56665;41.106;16.688;2023-08-01T08:02:09;48.17;25.90
69464;DHT22;56665;41.106;16.688;2023-08-01T08:05:13;48.32;25.78
69464;DHT22;56665;41.106;16.688;2023-08-01T08:08:17;48.21;26.19
69464;DHT22;56665;41.106;16.688;2023-08-01T08:11:21;48.07;26.09
69464;DHT22;56665;41.106;16.688;2023-08-01T08:14:27;48.35;26.02
69464;DHT22;56665;41.106;16.688;2023-08-01T08:17:31;48.55;25.65
69464;DHT22;56665;41.106;16.688;2023-08-01T08:20:44;47.69;25.49
69464;DHT22;56665;41.106;16.688;2023-08-01T08:23:48;47.86;25.72
69464;DHT22;56665;41.106;16.688;2023-08-01T08:26:52;47.77;25.34
69464;DHT22;56665;41.106;16.688;2023-08-01T08:29:55;47.52;26.02
69464;DHT22;56665;41.106;16.688;2023-08-01T08:32:59;46.87;26.40
69464;DHT22;56665;41.106;16.688;2023-08-01T08:36:08;46.87;26.64
69464;DHT22;56665;41.106;16.688;2023-08-01T08:39:12;46.34;26.76
69464;DHT22;56665;41.106;16.688;2023-08-01T08:42:18;46.81;26.68
69464;DHT22;56665;41.106;16.688;2023-08-01T08:45:23;47.03;26.51
69464;DHT22;56665;41.106;16.688;2023-08-01T08:48:29;46.41;26.58
69464;DHT22;56665;41.106;16.688;2023-08-01T08:51:34;46.46;27.24
69464;DHT22;56665;41.106;16.688;2023-08-01T08:54:39;46.65;26.61
69464;DHT22;56665;41.106;16.688;2023-08-01T08:57:43;46.87;26.51
69464;DHT22;56665;41.106;16.688;2023-08-01T09:00:51;46.64;26.78
69464;DHT22;56665;41.106;16.688;2023-08-01T09:03:54;46.47;26.85
69464;DHT22;56665;41.106;16.688;2023-08-01T09:07:02;46.24;27.25
69464;DHT22;56665;41.106;16.688;2023-08-01T09:10:09;46.16;26.89
69464;DHT22;56665;41.106;16.688;2023-08-01T09:13:14;46.10;26.64
69464;DHT22;56665;41.106;16.688;2023-08-01T09:16:17;45.82;26.45
69464;DHT22;56665;41.106;16.688;2023-08-01T09:19:25;45.46;26.99
69464;DHT22;56665;41.106;16.688;2023-08-01T09:22:30;44.47;27.44
69464;DHT22;56665;41.106;16.688;2023-08-01T09:25:47;43.86;28.18
69464;DHT22;56665;41.106;16.688;2023-08-01T09:28:57;43.43;30.98
69464;DHT22;56665;41.106;16.688;2023-08-01T09:32:11;43.15;32.93
69464;DHT22;56665;41.106;16.688;2023-08-01T09:35:15;42.74;33.53
69464;DHT22;56665;41.106;16.688;2023-08-01T09:38:19;40.44;36.26
69464;DHT22;56665;41.106;16.688;2023-08-01T09:41:23;39.43;37.16
69464;DHT22;56665;41.106;16.688;2023-08-01T09:44:28;39.20;37.30
69464;DHT22;56665;41.106;16.688;2023-08-01T09:47:36;38.23;38.95
69464;DHT22;56665;41.106;16.688;2023-08-01T09:50:41;38.47;38.55
69464;DHT22;56665;41.106;16.688;2023-08-01T09:53:53;38.44;38.84
69464;DHT22;56665;41.106;16.688;2023-08-01T09:56:57;37.96;38.95
69464;DHT22;56665;41.106;16.688;2023-08-01T10:00:01;37.42;39.60
69464;DHT22;56665;41.106;16.688;2023-08-01T10:03:05;38.19;38.79
69464;DHT22;56665;41.106;16.688;2023-08-01T10:06:11;37.82;39.34
69464;DHT22;56665;41.106;16.688;2023-08-01T10:09:16;37.86;39.47
69464;DHT22;56665;41.106;16.688;2023-08-01T10:12:22;38.00;39.54
69464;DHT22;56665;41.106;16.688;2023-08-01T10:15:28;38.24;39.23
69464;DHT22;56665;41.106;16.688;2023-08-01T10:18:32;38.16;39.32
69464;DHT22;56665;41.106;16.688;2023-08-01T10:21:36;37.47;40.61
69464;DHT22;56665;41.106;16.688;2023-08-01T10:24:43;37.61;40.71
69464;DHT22;56665;41.106;16.688;2023-08-01T10:28:18;37.31;41.00
69464;DHT22;56665;41.106;16.688;2023-08-01T10:31:21;37.01;41.76
69464;DHT22;56665;41.106;16.688;2023-08-01T10:34:25;37.15;41.41
69464;DHT22;56665;41.106;16.688;2023-08-01T10:37:43;37.07;41.07
69464;DHT22;56665;41.106;16.688;2023-08-01T10:40:50;37.02;40.99
69464;DHT22;56665;41.106;16.688;2023-08-01T10:44:09;36.83;40.89
69464;DHT22;56665;41.106;16.688;2023-08-01T10:47:12;36.77;40.88
69464;DHT22;56665;41.106;16.688;2023-08-01T10:50:18;36.57;41.21
69464;DHT22;56665;41.106;16.688;2023-08-01T10:53:22;36.56;41.30
69464;DHT22;56665;41.106;16.688;2023-08-01T10:56:26;36.57;41.01
69464;DHT22;56665;41.106;16.688;2023-08-01T10:59:30;36.54;40.75
69464;DHT22;56665;41.106;16.688;2023-08-01T11:02:34;36.58;40.66
69464;DHT22;56665;41.106;16.688;2023-08-01T11:05:38;36.30;41.14
69464;DHT22;56665;41.106;16.688;2023-08-01T11:08:42;36.41;41.47
69464;DHT22;56665;41.106;16.688;2023-08-01T11:11:50;36.41;41.52
69464;DHT22;56665;41.106;16.688;2023-08-01T11:15:02;36.51;41.30
69464;DHT22;56665;41.106;16.688;2023-08-01T11:18:09;36.47;41.38
69464;DHT22;56665;41.106;16.688;2023-08-01T11:21:25;36.00;42.07
69464;DHT22;56665;41.106;16.688;2023-08-01T11:24:29;35.68;42.39
69464;DHT22;56665;41.106;16.688;2023-08-01T11:27:33;36.16;42.25
69464;DHT22;56665;41.106;16.688;2023-08-01T11:30:38;35.85;42.58
69464;DHT22;56665;41.106;16.688;2023-08-01T11:33:42;35.59;42.82
69464;DHT22;56665;41.106;16.688;2023-08-01T11:36:45;35.74;42.61
69464;DHT22;56665;41.106;16.688;2023-08-01T11:39:49;35.26;42.95
69464;DHT22;56665;41.106;16.688;2023-08-01T11:42:56;34.46;44.08
69464;DHT22;56665;41.106;16.688;2023-08-01T11:46:00;34.06;44.66
69464;DHT22;56665;41.106;16.688;2023-08-01T11:49:08;33.98;45.39
69464;DHT22;56665;41.106;16.688;2023-08-01T11:52:27;34.82;44.07
69464;DHT22;56665;41.106;16.688;2023-08-01T11:55:34;35.03;43.22
69464;DHT22;56665;41.106;16.688;2023-08-01T11:58:42;35.13;42.36
69464;DHT22;56665;41.106;16.688;2023-08-01T12:01:46;35.04;42.33
69464;DHT22;56665;41.106;16.688;2023-08-01T12:04:53;35.24;41.90
69464;DHT22;56665;41.106;16.688;2023-08-01T12:08:09;35.17;41.77
69464;DHT22;56665;41.106;16.688;2023-08-01T12:11:25;34.98;42.44
69464;DHT22;56665;41.106;16.688;2023-08-01T12:14:29;35.04;42.33
69464;DHT22;56665;41.106;16.688;2023-08-01T12:17:33;34.79;42.79
69464;DHT22;56665;41.106;16.688;2023-08-01T12:20:37;35.01;42.35
69464;DHT22;56665;41.106;16.688;2023-08-01T12:23:41;35.20;41.62
69464;DHT22;56665;41.106;16.688;2023-08-01T12:26:45;34.94;42.25
69464;DHT22;56665;41.106;16.688;2023-08-01T12:29:48;35.14;42.60
69464;DHT22;56665;41.106;16.688;2023-08-01T12:32:52;35.65;41.73
69464;DHT22;56665;41.106;16.688;2023-08-01T12:35:56;35.47;42.20
69464;DHT22;56665;41.106;16.688;2023-08-01T12:39:00;35.26;42.14
69464;DHT22;56665;41.106;16.688;2023-08-01T12:42:06;35.59;41.46
69464;DHT22;56665;41.106;16.688;2023-08-01T12:45:09;35.68;41.78
69464;DHT22;56665;41.106;16.688;2023-08-01T12:48:13;35.88;41.50
69464;DHT22;56665;41.106;16.688;2023-08-01T12:51:17;35.96;42.25
69464;DHT22;56665;41.106;16.688;2023-08-01T12:54:21;35.90;41.98
69464;DHT22;56665;41.106;16.688;2023-08-01T12:57:25;35.41;43.22
69464;DHT22;56665;41.106;16.688;2023-08-01T13:00:32;35.86;42.25
69464;DHT22;56665;41.106;16.688;2023-08-01T13:03:36;36.00;42.32
69464;DHT22;56665;41.106;16.688;2023-08-01T13:06:40;36.32;41.66
69464;DHT22;56665;41.106;16.688;2023-08-01T13:09:43;36.57;41.02
69464;DHT22;56665;41.106;16.688;2023-08-01T13:12:47;36.06;40.82
69464;DHT22;56665;41.106;16.688;2023-08-01T13:15:51;35.92;41.02
69464;DHT22;56665;41.106;16.688;2023-08-01T13:18:54;35.90;41.19
69464;DHT22;56665;41.106;16.688;2023-08-01T13:21:58;36.23;40.85
69464;DHT22;56665;41.106;16.688;2023-08-01T13:25:02;36.37;39.87
69464;DHT22;56665;41.106;16.688;2023-08-01T13:28:07;35.97;39.88
69464;DHT22;56665;41.106;16.688;2023-08-01T13:31:12;35.79;40.73
69464;DHT22;56665;41.106;16.688;2023-08-01T13:34:16;35.92;40.25
69464;DHT22;56665;41.106;16.688;2023-08-01T13:37:21;35.85;40.27
69464;DHT22;56665;41.106;16.688;2023-08-01T13:40:25;35.99;39.99
69464;DHT22;56665;41.106;16.688;2023-08-01T13:43:29;35.96;40.42
69464;DHT22;56665;41.106;16.688;2023-08-01T13:46:33;36.10;40.85
69464;DHT22;56665;41.106;16.688;2023-08-01T13:49:37;36.41;40.71
69464;DHT22;56665;41.106;16.688;2023-08-01T13:52:41;36.44;40.66
69464;DHT22;56665;41.106;16.688;2023-08-01T13:55:45;36.43;41.40
69464;DHT22;56665;41.106;16.688;2023-08-01T13:58:50;36.06;41.09
69464;DHT22;56665;41.106;16.688;2023-08-01T14:01:55;36.09;40.51
69464;DHT22;56665;41.106;16.688;2023-08-01T14:04:59;35.79;43.70
69464;DHT22;56665;41.106;16.688;2023-08-01T14:08:03;35.31;44.80
69464;DHT22;56665;41.106;16.688;2023-08-01T14:11:08;35.34;44.98
69464;DHT22;56665;41.106;16.688;2023-08-01T14:14:12;35.48;44.99
69464;DHT22;56665;41.106;16.688;2023-08-01T14:17:15;35.30;45.00
69464;DHT22;56665;41.106;16.688;2023-08-01T14:20:19;35.28;45.47
69464;DHT22;56665;41.106;16.688;2023-08-01T14:23:23;35.28;46.07
69464;DHT22;56665;41.106;16.688;2023-08-01T14:26:27;35.14;46.47
69464;DHT22;56665;41.106;16.688;2023-08-01T14:29:32;35.07;46.42
69464;DHT22;56665;41.106;16.688;2023-08-01T14:32:37;34.97;46.39
69464;DHT22;56665;41.106;16.688;2023-08-01T14:35:42;35.04;46.32
69464;DHT22;56665;41.106;16.688;2023-08-01T14:38:45;34.76;46.27
69464;DHT22;56665;41.106;16.688;2023-08-01T14:41:55;34.45;46.76
69464;DHT22;56665;41.106;16.688;2023-08-01T14:44:59;34.28;46.19
69464;DHT22;56665;41.106;16.688;2023-08-01T14:48:03;34.33;45.41
69464;DHT22;56665;41.106;16.688;2023-08-01T14:51:07;34.16;45.64
69464;DHT22;56665;41.106;16.688;2023-08-01T14:54:11;34.32;44.93
69464;DHT22;56665;41.106;16.688;2023-08-01T14:57:15;34.16;44.57
69464;DHT22;56665;41.106;16.688;2023-08-01T15:00:19;33.88;44.65
69464;DHT22;56665;41.106;16.688;2023-08-01T15:03:22;33.68;45.08
69464;DHT22;56665;41.106;16.688;2023-08-01T15:06:26;33.55;45.16
69464;DHT22;56665;41.106;16.688;2023-08-01T15:09:30;33.57;45.36
69464;DHT22;56665;41.106;16.688;2023-08-01T15:12:34;33.33;46.92
69464;DHT22;56665;41.106;16.688;2023-08-01T15:15:37;33.43;45.44
69464;DHT22;56665;41.106;16.688;2023-08-01T15:18:41;33.26;45.93
69464;DHT22;56665;41.106;16.688;2023-08-01T15:21:45;33.47;46.22
69464;DHT22;56665;41.106;16.688;2023-08-01T15:24:49;33.35;46.47
69464;DHT22;56665;41.106;16.688;2023-08-01T15:27:53;33.29;47.20
69464;DHT22;56665;41.106;16.688;2023-08-01T15:31:08;33.03;48.59
69464;DHT22;56665;41.106;16.688;2023-08-01T15:34:12;32.79;49.86
69464;DHT22;56665;41.106;16.688;2023-08-01T15:37:16;32.82;50.45
69464;DHT22;56665;41.106;16.688;2023-08-01T15:40:20;32.69;51.31
69464;DHT22;56665;41.106;16.688;2023-08-01T15:43:25;32.69;51.44
69464;DHT22;56665;41.106;16.688;2023-08-01T15:46:29;32.72;51.38
69464;DHT22;56665;41.106;16.688;2023-08-01T15:49:32;32.79;51.06
69464;DHT22;56665;41.106;16.688;2023-08-01T15:52:36;32.86;51.19
69464;DHT22;56665;41.106;16.688;2023-08-01T15:55:40;32.79;51.19
69464;DHT22;56665;41.106;16.688;2023-08-01T15:58:44;32.59;51.07
69464;DHT22;56665;41.106;16.688;2023-08-01T16:01:48;32.46;51.46
69464;DHT22;56665;41.106;16.688;2023-08-01T16:04:52;32.45;51.35
69464;DHT22;56665;41.106;16.688;2023-08-01T16:07:56;32.46;51.42
69464;DHT22;56665;41.106;16.688;2023-08-01T16:10:59;32.42;51.59
69464;DHT22;56665;41.106;16.688;2023-08-01T16:14:03;32.41;51.41
69464;DHT22;56665;41.106;16.688;2023-08-01T16:17:07;32.39;51.07
69464;DHT22;56665;41.106;16.688;2023-08-01T16:20:11;32.41;51.09
69464;DHT22;56665;41.106;16.688;2023-08-01T16:23:15;32.49;50.94
69464;DHT22;56665;41.106;16.688;2023-08-01T16:26:18;32.56;50.12
69464;DHT22;56665;41.106;16.688;2023-08-01T16:29:22;32.61;51.05
69464;DHT22;56665;41.106;16.688;2023-08-01T16:32:26;32.58;48.84
69464;DHT22;56665;41.106;16.688;2023-08-01T16:35:32;32.59;48.99
69464;DHT22;56665;41.106;16.688;2023-08-01T16:38:36;32.54;47.99
69464;DHT22;56665;41.106;16.688;2023-08-01T16:41:40;32.58;41.70
69464;DHT22;56665;41.106;16.688;2023-08-01T16:44:44;32.71;40.57
69464;DHT22;56665;41.106;16.688;2023-08-01T16:47:47;32.78;40.61
69464;DHT22;56665;41.106;16.688;2023-08-01T16:50:51;32.89;40.59
69464;DHT22;56665;41.106;16.688;2023-08-01T16:53:55;32.99;40.02
69464;DHT22;56665;41.106;16.688;2023-08-01T16:56:59;33.13;39.11
69464;DHT22;56665;41.106;16.688;2023-08-01T17:00:05;33.16;39.15
69464;DHT22;56665;41.106;16.688;2023-08-01T17:03:09;33.07;39.60
69464;DHT22;56665;41.106;16.688;2023-08-01T17:06:13;33.00;40.12
69464;DHT22;56665;41.106;16.688;2023-08-01T17:09:17;32.89;40.62
69464;DHT22;56665;41.106;16.688;2023-08-01T17:12:20;32.79;42.14
69464;DHT22;56665;41.106;16.688;2023-08-01T17:15:25;32.66;42.12
69464;DHT22;56665;41.106;16.688;2023-08-01T17:18:29;32.54;42.25
69464;DHT22;56665;41.106;16.688;2023-08-01T17:21:33;32.44;42.14
69464;DHT22;56665;41.106;16.688;2023-08-01T17:24:37;32.31;42.69
69464;DHT22;56665;41.106;16.688;2023-08-01T17:27:41;32.20;43.55
69464;DHT22;56665;41.106;16.688;2023-08-01T17:30:44;32.08;44.16
69464;DHT22;56665;41.106;16.688;2023-08-01T17:33:48;32.00;44.83
69464;DHT22;56665;41.106;16.688;2023-08-01T17:36:52;31.94;45.52
69464;DHT22;56665;41.106;16.688;2023-08-01T17:39:58;31.83;45.68
69464;DHT22;56665;41.106;16.688;2023-08-01T17:43:02;31.64;45.93
69464;DHT22;56665;41.106;16.688;2023-08-01T17:46:07;31.56;46.64
69464;DHT22;56665;41.106;16.688;2023-08-01T17:49:11;31.45;46.91
69464;DHT22;56665;41.106;16.688;2023-08-01T17:52:14;31.36;47.16
69464;DHT22;56665;41.106;16.688;2023-08-01T17:55:18;31.32;47.34
69464;DHT22;56665;41.106;16.688;2023-08-01T17:58:22;31.22;47.76
69464;DHT22;56665;41.106;16.688;2023-08-01T18:01:26;31.09;48.26
69464;DHT22;56665;41.106;16.688;2023-08-01T18:04:32;30.98;48.71
69464;DHT22;56665;41.106;16.688;2023-08-01T18:07:36;30.82;48.98
69464;DHT22;56665;41.106;16.688;2023-08-01T18:10:40;30.79;49.21
69464;DHT22;56665;41.106;16.688;2023-08-01T18:13:45;30.77;49.45
69464;DHT22;56665;41.106;16.688;2023-08-01T18:16:49;30.68;49.67
69464;DHT22;56665;41.106;16.688;2023-08-01T18:19:52;30.61;49.92
69464;DHT22;56665;41.106;16.688;2023-08-01T18:22:56;30.58;49.92
69464;DHT22;56665;41.106;16.688;2023-08-01T18:26:00;30.58;50.20
69464;DHT22;56665;41.106;16.688;2023-08-01T18:29:04;30.51;50.40
69464;DHT22;56665;41.106;16.688;2023-08-01T18:32:08;30.46;50.53
69464;DHT22;56665;41.106;16.688;2023-08-01T18:35:12;30.43;50.60
69464;DHT22;56665;41.106;16.688;2023-08-01T18:38:16;30.43;50.71
69464;DHT22;56665;41.106;16.688;2023-08-01T18:41:20;30.37;50.86
69464;DHT22;56665;41.106;16.688;2023-08-01T18:44:28;30.34;50.97
69464;DHT22;56665;41.106;16.688;2023-08-01T18:47:32;30.31;51.04
69464;DHT22;56665;41.106;16.688;2023-08-01T18:50:36;30.24;50.91
69464;DHT22;56665;41.106;16.688;2023-08-01T18:53:41;30.24;50.96
69464;DHT22;56665;41.106;16.688;2023-08-01T18:56:45;30.20;50.92
69464;DHT22;56665;41.106;16.688;2023-08-01T18:59:48;30.19;50.95
69464;DHT22;56665;41.106;16.688;2023-08-01T19:02:52;30.13;51.10
69464;DHT22;56665;41.106;16.688;2023-08-01T19:05:56;30.06;51.08